createdAt,value
2023-03-22T00:01:32.517Z,8.51
2023-03-22T00:03:25.597Z,8.51
2023-03-22T00:05:18.618Z,8.51
2023-03-22T00:07:11.669Z,8.50
2023-03-22T00:09:04.827Z,8.49
2023-03-22T00:10:57.777Z,8.48
2023-03-22T00:12:51.128Z,8.47
2023-03-22T00:14:44.282Z,8.46
2023-03-22T00:16:37.358Z,8.46
2023-03-22T00:18:30.481Z,8.45
2023-03-22T00:20:23.840Z,8.46
2023-03-22T00:22:16.890Z,8.46
2023-03-22T00:24:09.945Z,8.45
2023-03-22T00:26:02.996Z,8.45
2023-03-22T00:27:55.986Z,8.47
2023-03-22T00:29:48.991Z,8.47
2023-03-22T00:31:42.396Z,8.47
2023-03-22T00:33:36.646Z,8.47
2023-03-22T00:35:29.686Z,8.48
2023-03-22T00:37:22.730Z,8.48
2023-03-22T00:39:15.816Z,8.48
2023-03-22T00:41:12.581Z,8.49
2023-03-22T00:43:05.574Z,8.49
2023-03-22T00:44:58.517Z,8.49
2023-03-22T00:46:51.493Z,8.50
2023-03-22T00:48:45.338Z,8.50
2023-03-22T00:50:40.292Z,8.51
2023-03-22T00:52:33.691Z,8.50
2023-03-22T00:54:27.255Z,8.51
2023-03-22T00:56:23.123Z,8.51
2023-03-22T00:58:26.920Z,8.52
2023-03-22T01:00:20.545Z,8.53
2023-03-22T01:02:14.203Z,8.53
2023-03-22T01:04:07.253Z,8.54
2023-03-22T01:06:01.132Z,8.54
2023-03-22T01:07:55.132Z,8.55
2023-03-22T01:09:48.863Z,8.54
2023-03-22T01:11:43.243Z,8.55
2023-03-22T01:13:41.969Z,8.56
2023-03-22T01:15:35.693Z,8.56
2023-03-22T01:17:29.044Z,8.57
2023-03-22T01:19:21.993Z,8.58
2023-03-22T01:21:15.150Z,8.59
2023-03-22T01:23:08.312Z,8.60
2023-03-22T01:25:01.554Z,8.61
2023-03-22T01:26:54.735Z,8.62
2023-03-22T01:28:47.654Z,8.63
2023-03-22T01:30:41.176Z,8.64
2023-03-22T01:32:37.024Z,8.65
2023-03-22T01:34:31.415Z,8.65
2023-03-22T01:36:24.668Z,8.66
2023-03-22T01:38:17.927Z,8.67
2023-03-22T01:40:17.632Z,8.67
2023-03-22T01:42:14.623Z,8.67
2023-03-22T01:44:16.774Z,8.67
2023-03-22T01:46:18.330Z,8.67
2023-03-22T01:48:17.943Z,8.67
2023-03-22T01:50:11.662Z,8.66
2023-03-22T01:52:11.165Z,8.67
2023-03-22T01:54:34.827Z,8.66
2023-03-22T01:56:35.042Z,8.66
2023-03-22T01:58:28.354Z,8.66
2023-03-22T02:00:24.641Z,8.62
2023-03-22T02:02:31.167Z,8.62
2023-03-22T02:04:35.887Z,8.62
2023-03-22T02:06:32.477Z,8.61
2023-03-22T02:08:33.197Z,8.61
2023-03-22T02:10:28.699Z,8.61
2023-03-22T02:12:37.427Z,8.61
2023-03-22T02:14:47.668Z,8.60
2023-03-22T02:17:02.530Z,8.59
2023-03-22T02:19:30.716Z,8.58
2023-03-22T02:21:42.700Z,8.57
2023-03-22T02:24:05.804Z,8.57
2023-03-22T02:26:11.405Z,8.57
2023-03-22T02:28:17.616Z,8.57
2023-03-22T02:30:19.723Z,8.58
2023-03-22T02:32:41.352Z,8.58
2023-03-22T02:34:54.058Z,8.57
2023-03-22T02:37:27.231Z,8.57
2023-03-22T02:39:30.546Z,8.56
2023-03-22T02:42:14.480Z,8.56
2023-03-22T02:44:28.111Z,8.55
2023-03-22T02:46:38.099Z,8.54
2023-03-22T02:49:01.872Z,8.53
2023-03-22T02:51:00.305Z,8.52
2023-03-22T02:53:05.746Z,8.51
2023-03-22T02:55:26.344Z,8.49
2023-03-22T02:57:31.170Z,8.47
2023-03-22T02:59:26.879Z,8.47
2023-03-22T03:01:36.196Z,8.46
2023-03-22T03:03:32.137Z,8.45
2023-03-22T03:05:27.119Z,8.45
2023-03-22T03:07:24.736Z,8.45
2023-03-22T03:09:19.997Z,8.45
2023-03-22T03:11:13.044Z,8.45
2023-03-22T03:13:06.291Z,8.46
2023-03-22T03:14:59.343Z,8.47
2023-03-22T03:17:22.927Z,8.48
2023-03-22T03:19:27.427Z,8.48
2023-03-22T03:21:30.347Z,8.48
2023-03-22T03:23:43.744Z,8.49
2023-03-22T03:26:03.112Z,8.48
2023-03-22T03:28:10.159Z,8.48
2023-03-22T03:30:13.976Z,8.48
2023-03-22T03:32:19.229Z,8.47
2023-03-22T03:34:18.026Z,8.47
2023-03-22T03:36:16.085Z,8.47
2023-03-22T03:38:27.398Z,8.47
2023-03-22T03:40:25.568Z,8.47
2023-03-22T03:42:19.409Z,8.48
2023-03-22T03:44:13.882Z,8.48
2023-03-22T03:46:08.736Z,8.48
2023-03-22T03:48:06.641Z,8.48
2023-03-22T03:49:59.999Z,8.46
2023-03-22T03:51:55.823Z,8.46
2023-03-22T03:53:49.072Z,8.47
2023-03-22T03:55:42.943Z,8.47
2023-03-22T03:57:36.092Z,8.48
2023-03-22T03:59:29.244Z,8.48
2023-03-22T04:01:24.257Z,8.46
2023-03-22T04:03:38.900Z,8.46
2023-03-22T04:05:38.199Z,8.46
2023-03-22T04:07:31.963Z,8.47
2023-03-22T04:09:27.485Z,8.47
2023-03-22T04:11:22.876Z,8.47
2023-03-22T04:13:19.292Z,8.47
2023-03-22T04:15:13.179Z,8.47
2023-03-22T04:17:06.637Z,8.47
2023-03-22T04:18:59.687Z,8.48
2023-03-22T04:20:53.700Z,8.48
2023-03-22T04:22:49.054Z,8.47
2023-03-22T04:24:42.230Z,8.46
2023-03-22T04:26:35.988Z,8.47
2023-03-22T04:28:49.324Z,8.46
2023-03-22T04:30:45.864Z,8.47
2023-03-22T04:32:49.030Z,8.48
2023-03-22T04:34:43.103Z,8.47
2023-03-22T04:36:41.696Z,8.47
2023-03-22T04:38:41.908Z,8.48
2023-03-22T04:40:38.966Z,8.49
2023-03-22T04:42:36.810Z,8.49
2023-03-22T04:44:35.527Z,8.49
2023-03-22T04:46:30.742Z,8.46
2023-03-22T04:48:29.680Z,8.47
2023-03-22T04:50:23.757Z,8.47
2023-03-22T04:52:19.369Z,8.48
2023-03-22T04:54:17.845Z,8.48
2023-03-22T04:56:13.865Z,8.50
2023-03-22T04:58:07.529Z,8.53
2023-03-22T05:00:06.725Z,8.55
2023-03-22T05:01:59.967Z,8.58
2023-03-22T05:03:54.258Z,8.60
2023-03-22T05:05:53.572Z,8.61
2023-03-22T05:07:47.125Z,8.62
2023-03-22T05:09:40.173Z,8.63
2023-03-22T05:11:34.041Z,8.64
2023-03-22T05:13:50.338Z,8.64
2023-03-22T05:15:43.392Z,8.64
2023-03-22T05:17:36.948Z,8.66
2023-03-22T05:19:30.714Z,8.68
2023-03-22T05:21:28.297Z,8.69
2023-03-22T05:23:22.513Z,8.68
2023-03-22T05:25:18.185Z,8.66
2023-03-22T05:27:14.420Z,8.68
2023-03-22T05:29:11.842Z,8.69
2023-03-22T05:31:21.988Z,8.70
2023-03-22T05:33:22.052Z,8.70
2023-03-22T05:35:17.967Z,8.71
2023-03-22T05:37:16.933Z,8.72
2023-03-22T05:39:22.769Z,8.74
2023-03-22T05:41:16.533Z,8.76
2023-03-22T05:43:09.788Z,8.78
2023-03-22T05:45:03.661Z,8.81
2023-03-22T05:46:56.755Z,8.82
2023-03-22T05:49:05.941Z,8.84
2023-03-22T05:50:59.610Z,8.87
2023-03-22T05:52:54.601Z,8.89
2023-03-22T05:54:59.431Z,8.91
2023-03-22T05:56:55.281Z,8.92
2023-03-22T05:58:48.808Z,8.94
2023-03-22T06:00:43.294Z,8.95
2023-03-22T06:02:56.661Z,8.96
2023-03-22T06:04:52.230Z,8.98
2023-03-22T06:06:47.126Z,9.01
2023-03-22T06:08:53.280Z,9.02
2023-03-22T06:10:51.135Z,9.03
2023-03-22T06:12:44.206Z,9.05
2023-03-22T06:14:41.650Z,9.07
2023-03-22T06:17:10.948Z,9.10
2023-03-22T06:19:05.049Z,9.11
2023-03-22T06:21:00.101Z,9.14
2023-03-22T06:22:53.904Z,9.16
2023-03-22T06:24:47.470Z,9.21
2023-03-22T06:26:44.195Z,9.24
2023-03-22T06:28:38.264Z,9.25
2023-03-22T06:30:31.555Z,9.28
2023-03-22T06:32:45.770Z,9.30
2023-03-22T06:34:41.069Z,9.35
2023-03-22T06:36:34.832Z,9.41
2023-03-22T06:38:43.981Z,9.50
2023-03-22T06:40:37.138Z,9.56
2023-03-22T06:42:31.078Z,9.60
2023-03-22T06:44:34.679Z,9.65
2023-03-22T06:46:38.377Z,9.76
2023-03-22T06:48:38.701Z,9.89
2023-03-22T06:50:38.374Z,9.97
2023-03-22T06:52:53.379Z,10.00
2023-03-22T06:54:46.599Z,10.04
2023-03-22T06:56:40.494Z,10.08
2023-03-22T06:58:33.646Z,10.07
2023-03-22T07:00:26.596Z,10.07
2023-03-22T07:02:19.648Z,10.05
2023-03-22T07:04:33.355Z,10.04
2023-03-22T07:06:26.657Z,10.04
2023-03-22T07:08:20.436Z,10.06
2023-03-22T07:10:15.720Z,10.04
2023-03-22T07:12:09.994Z,10.05
2023-03-22T07:14:03.989Z,10.04
2023-03-22T07:16:13.094Z,10.04
2023-03-22T07:18:12.346Z,10.05
2023-03-22T07:20:07.025Z,10.07
2023-03-22T07:22:00.267Z,10.09
2023-03-22T07:23:53.416Z,10.12
2023-03-22T07:25:48.222Z,10.16
2023-03-22T07:27:48.708Z,10.22
2023-03-22T07:29:41.849Z,10.27
2023-03-22T07:31:36.649Z,10.32
2023-03-22T07:33:33.330Z,10.39
2023-03-22T07:35:30.504Z,10.44
2023-03-22T07:37:24.831Z,10.49
2023-03-22T07:39:21.240Z,10.54
2023-03-22T07:41:14.497Z,10.59
2023-03-22T07:43:21.680Z,10.76
2023-03-22T07:45:35.830Z,11.02
2023-03-22T07:47:58.263Z,11.15
2023-03-22T07:50:14.360Z,11.23
2023-03-22T07:52:09.341Z,11.28
2023-03-22T07:54:03.192Z,11.26
2023-03-22T07:55:56.271Z,11.23
2023-03-22T07:57:49.323Z,11.25
2023-03-22T07:59:44.332Z,11.27
2023-03-22T08:01:38.654Z,11.29
2023-03-22T08:03:48.446Z,11.34
2023-03-22T08:05:54.804Z,11.43
2023-03-22T08:07:49.082Z,11.50
2023-03-22T08:09:42.942Z,11.57
2023-03-22T08:11:36.821Z,11.69
2023-03-22T08:13:30.690Z,11.80
2023-03-22T08:15:24.053Z,11.94
2023-03-22T08:17:19.103Z,12.06
2023-03-22T08:19:14.761Z,12.15
2023-03-22T08:21:08.578Z,12.32
2023-03-22T08:23:01.966Z,12.49
2023-03-22T08:25:18.300Z,12.55
2023-03-22T08:27:12.357Z,12.60
2023-03-22T08:29:10.076Z,12.61
2023-03-22T08:31:13.902Z,12.55
2023-03-22T08:33:08.610Z,12.50
2023-03-22T08:35:01.679Z,12.45
2023-03-22T08:36:54.715Z,12.39
2023-03-22T08:38:49.611Z,12.30
2023-03-22T08:40:47.061Z,12.21
2023-03-22T08:42:40.707Z,12.15
2023-03-22T08:44:33.687Z,12.09
2023-03-22T08:46:27.638Z,12.06
2023-03-22T08:48:20.948Z,12.04
2023-03-22T08:50:35.001Z,12.06
2023-03-22T08:52:39.859Z,12.27
2023-03-22T08:54:44.583Z,12.57
2023-03-22T08:56:59.268Z,12.92
2023-03-22T08:59:21.998Z,13.18
2023-03-22T09:01:27.988Z,13.27
2023-03-22T09:03:28.288Z,13.30
2023-03-22T09:05:21.522Z,13.46
2023-03-22T09:07:14.679Z,13.56
2023-03-22T09:09:08.863Z,13.58
2023-03-22T09:11:03.031Z,13.59
2023-03-22T09:12:56.288Z,13.55
2023-03-22T09:14:50.156Z,13.52
2023-03-22T09:16:43.824Z,13.55
2023-03-22T09:18:38.389Z,13.58
2023-03-22T09:20:36.150Z,13.63
2023-03-22T09:22:30.140Z,13.71
2023-03-22T09:24:23.309Z,13.67
2023-03-22T09:26:19.013Z,13.54
2023-03-22T09:28:14.554Z,13.45
2023-03-22T09:30:08.688Z,13.46
2023-03-22T09:32:01.738Z,13.49
2023-03-22T09:33:57.658Z,13.51
2023-03-22T09:35:50.823Z,13.50
2023-03-22T09:37:45.702Z,13.51
2023-03-22T09:39:40.294Z,13.53
2023-03-22T09:41:46.412Z,13.58
2023-03-22T09:43:48.603Z,13.64
2023-03-22T09:45:46.604Z,13.63
2023-03-22T09:47:45.424Z,13.60
2023-03-22T09:49:52.968Z,13.55
2023-03-22T09:51:51.819Z,13.57
2023-03-22T09:53:44.898Z,13.61
2023-03-22T09:55:46.136Z,13.65
2023-03-22T09:57:39.900Z,13.66
2023-03-22T10:00:12.700Z,13.70
2023-03-22T10:02:26.766Z,13.77
2023-03-22T10:04:55.489Z,13.85
2023-03-22T10:07:00.034Z,13.90
2023-03-22T10:09:02.303Z,13.95
2023-03-22T10:10:55.374Z,14.04
2023-03-22T10:13:05.503Z,14.12
2023-03-22T10:15:16.154Z,14.20
2023-03-22T10:17:17.720Z,14.29
2023-03-22T10:19:22.040Z,14.46
2023-03-22T10:21:19.282Z,14.60
2023-03-22T10:23:22.185Z,14.66
2023-03-22T10:25:21.670Z,14.72
2023-03-22T10:27:16.453Z,14.78
2023-03-22T10:29:30.494Z,14.75
2023-03-22T10:31:26.782Z,14.77
2023-03-22T10:33:34.620Z,14.77
2023-03-22T10:35:28.578Z,14.78
2023-03-22T10:37:26.769Z,14.84
2023-03-22T10:39:27.495Z,14.93
2023-03-22T10:41:24.448Z,14.99
2023-03-22T10:43:36.838Z,15.07
2023-03-22T10:45:34.082Z,15.07
2023-03-22T10:47:35.815Z,15.06
2023-03-22T10:49:35.666Z,15.05
2023-03-22T10:51:47.964Z,15.00
2023-03-22T10:53:46.830Z,14.99
2023-03-22T10:55:44.604Z,15.00
2023-03-22T10:57:39.401Z,15.03
2023-03-22T10:59:49.765Z,15.04
2023-03-22T11:01:45.202Z,15.08
2023-03-22T11:03:45.110Z,15.07
2023-03-22T11:05:38.815Z,15.06
2023-03-22T11:07:45.408Z,15.05
2023-03-22T11:09:38.456Z,15.05
2023-03-22T11:11:36.663Z,15.03
2023-03-22T11:13:29.574Z,15.04
2023-03-22T11:15:27.547Z,15.01
2023-03-22T11:17:26.008Z,15.00
2023-03-22T11:19:26.664Z,14.98
2023-03-22T11:21:23.484Z,15.03
2023-03-22T11:23:18.291Z,15.10
2023-03-22T11:25:37.338Z,15.17
2023-03-22T11:27:33.490Z,15.19
2023-03-22T11:29:27.987Z,15.22
2023-03-22T11:31:21.426Z,15.27
2023-03-22T11:33:21.326Z,15.35
2023-03-22T11:35:17.849Z,15.40
2023-03-22T11:37:11.306Z,15.47
2023-03-22T11:39:08.038Z,15.55
2023-03-22T11:41:03.779Z,15.62
2023-03-22T11:43:18.956Z,15.69
2023-03-22T11:45:21.520Z,15.79
2023-03-22T11:47:14.515Z,15.86
2023-03-22T11:49:14.877Z,15.94
2023-03-22T11:51:15.922Z,15.97
2023-03-22T11:53:19.680Z,15.93
2023-03-22T11:55:14.459Z,15.93
2023-03-22T11:57:17.204Z,15.97
2023-03-22T11:59:28.050Z,16.08
2023-03-22T12:02:06.734Z,16.17
2023-03-22T12:04:07.875Z,16.12
2023-03-22T12:06:07.149Z,16.08
2023-03-22T12:08:10.517Z,16.07
2023-03-22T12:10:41.297Z,16.04
2023-03-22T12:12:44.203Z,16.13
2023-03-22T12:14:47.548Z,16.21
2023-03-22T12:16:54.996Z,16.18
2023-03-22T12:18:57.628Z,16.16
2023-03-22T12:20:56.502Z,16.15
2023-03-22T12:22:54.768Z,16.17
2023-03-22T12:24:48.493Z,16.16
2023-03-22T12:26:41.750Z,16.13
2023-03-22T12:28:42.940Z,16.08
2023-03-22T12:30:51.330Z,16.07
2023-03-22T12:32:50.133Z,16.08
2023-03-22T12:34:48.792Z,16.04
2023-03-22T12:36:48.274Z,15.99
2023-03-22T12:39:18.049Z,15.96
2023-03-22T12:41:15.946Z,15.95
2023-03-22T12:43:37.993Z,15.98
2023-03-22T12:45:36.156Z,16.02
2023-03-22T12:47:35.972Z,16.00
2023-03-22T12:49:37.508Z,15.94
2023-03-22T12:51:30.870Z,15.94
2023-03-22T12:53:30.678Z,15.94
2023-03-22T12:55:29.871Z,15.93
2023-03-22T12:57:22.919Z,15.90
2023-03-22T12:59:20.309Z,15.85
2023-03-22T13:01:46.599Z,15.83
2023-03-22T13:03:47.947Z,15.82
2023-03-22T13:05:41.725Z,15.82
2023-03-22T13:07:52.389Z,15.79
2023-03-22T13:09:50.752Z,15.76
2023-03-22T13:12:03.156Z,15.75
2023-03-22T13:13:56.211Z,15.73
2023-03-22T13:16:15.399Z,15.71
2023-03-22T13:18:31.910Z,15.69
2023-03-22T13:20:28.228Z,15.67
2023-03-22T13:22:50.041Z,15.61
2023-03-22T13:25:08.641Z,15.58
2023-03-22T13:27:02.164Z,15.55
2023-03-22T13:28:59.100Z,15.57
2023-03-22T13:30:57.142Z,15.60
2023-03-22T13:32:57.130Z,15.63
2023-03-22T13:34:53.035Z,15.67
2023-03-22T13:36:51.815Z,15.67
2023-03-22T13:38:54.895Z,15.69
2023-03-22T13:41:03.594Z,15.72
2023-03-22T13:43:11.266Z,15.75
2023-03-22T13:45:09.496Z,15.75
2023-03-22T13:47:03.093Z,15.72
2023-03-22T13:49:02.091Z,15.71
2023-03-22T13:50:56.974Z,15.73
2023-03-22T13:53:02.002Z,15.72
2023-03-22T13:54:57.734Z,15.74
2023-03-22T13:56:57.383Z,15.78
2023-03-22T13:58:53.159Z,15.82
2023-03-22T14:00:53.084Z,15.90
2023-03-22T14:02:48.574Z,15.96
2023-03-22T14:04:47.321Z,16.01
2023-03-22T14:06:51.453Z,16.03
2023-03-22T14:08:47.966Z,16.05
2023-03-22T14:10:48.985Z,16.01
2023-03-22T14:12:48.024Z,15.94
2023-03-22T14:14:56.380Z,15.90
2023-03-22T14:16:59.697Z,15.88
2023-03-22T14:18:54.104Z,15.90
2023-03-22T14:20:52.519Z,15.93
